Ryuhomaru — JD2639 — position and weather

sailwx.info

Track history (hours):
 
Tides and Currents Weather Stations Pressure Air Temp Water Temp Dewpoint Dewpoint Depression Visibility Wind Speed Wind Dir Waves Ship Positions

Ryuhomaru

Last reported at 2016-Jun-27 03:26 UTC. Time now 2016-Jun-27 07:52 UTC.
Position N 34°33' E 135°24'.

Length 42 m; draft 3.5 m.

Type: Tug. MMSI: 431000586.

Date/timePositionNaut miles runAvg speedWind from/ knotsBaromVisibWave heightAir tempDewpointWater temp
2016-Jun-27 03:26N 34°33' E 135°24'2 2.0
2016-Jun-27 02:31N 34°31' E 135°24'1 0.9
2016-Jun-27 01:33N 34°31' E 135°24'0 0.0
2016-Jun-27 00:32N 34°31' E 135°24'0 0.0
2016-Jun-26 23:33N 34°31' E 135°24'1 0.6
2016-Jun-26 22:28N 34°31' E 135°23'2 2.4
2016-Jun-26 21:33N 34°32' E 135°21'5 3.6
2016-Jun-26 20:09N 34°33' E 135°27'2 0.1
2016-Jun-26 03:33N 34°33' E 135°25'0 0.4
2016-Jun-26 02:33N 34°33' E 135°24'3 3.2
2016-Jun-26 01:33N 34°33' E 135°20'5 5.1
2016-Jun-26 00:33N 34°33' E 135°27'0 0.0
2016-Jun-25 23:27N 34°33' E 135°27'0 0.0
2016-Jun-24 03:21N 34°33' E 135°27'3 3.2
2016-Jun-24 02:34N 34°33' E 135°24'1 0.4
2016-Jun-24 00:29N 34°34' E 135°24'0 0.1
2016-Jun-23 23:32N 34°34' E 135°24'0 0.0
2016-Jun-23 22:21N 34°34' E 135°24'0 0.1
2016-Jun-23 21:32N 34°34' E 135°24'0 0.1
2016-Jun-23 20:33N 34°34' E 135°24'0 0.0
2016-Jun-23 19:33N 34°34' E 135°24'0 0.0
2016-Jun-23 18:34N 34°34' E 135°24'0 0.1
2016-Jun-23 17:33N 34°34' E 135°24'0 0.1
2016-Jun-23 16:33N 34°34' E 135°24'0 0.1
2016-Jun-23 15:34N 34°34' E 135°24'0 0.0
2016-Jun-23 14:34N 34°34' E 135°24'0 0.1
2016-Jun-23 13:34N 34°34' E 135°24'0 0.0
2016-Jun-23 12:31N 34°34' E 135°24'0 0.1
2016-Jun-23 11:33N 34°34' E 135°24'0 0.0
2016-Jun-23 10:32N 34°34' E 135°24'0 0.1
2016-Jun-23 09:33N 34°34' E 135°24'0 0.1
2016-Jun-23 08:33N 34°34' E 135°24'0 0.1
2016-Jun-23 07:34N 34°34' E 135°24'0 0.1
2016-Jun-23 05:30N 34°34' E 135°24'0 0.1
2016-Jun-23 04:34N 34°34' E 135°24'0 0.0
2016-Jun-23 03:23N 34°34' E 135°24'0 0.0
2016-Jun-23 01:30N 34°34' E 135°24'4 3.6
2016-Jun-23 00:32N 34°33' E 135°20'4 4.0
2016-Jun-22 23:32N 34°33' E 135°25'1 0.9
2016-Jun-22 22:04N 34°33' E 135°27'2 0.2
2016-Jun-22 10:33N 34°33' E 135°24'1 1.2
2016-Jun-22 09:23N 34°32' E 135°23'0 0.5
2016-Jun-22 08:33N 34°33' E 135°23'3 3.0
2016-Jun-22 07:33N 34°33' E 135°27'0 0.0
2016-Jun-22 06:33N 34°33' E 135°27'0 0.0
2016-Jun-22 04:31N 34°33' E 135°27'3 3.0
2016-Jun-22 03:33N 34°33' E 135°23'3 2.9
2016-Jun-22 02:33N 34°33' E 135°27'0 0.0
2016-Jun-22 00:23N 34°33' E 135°27'0 0.0
2016-Jun-21 23:31N 34°33' E 135°27'2 2.5
2016-Jun-21 22:31N 34°32' E 135°24'1 1.3
2016-Jun-21 21:33N 34°33' E 135°23'3 2.2
2016-Jun-21 20:19N 34°33' E 135°27'0 0.0
2016-Jun-21 03:30N 34°33' E 135°27'1 1.4
2016-Jun-21 02:31N 34°32' E 135°25'1 1.3
2016-Jun-21 01:31N 34°33' E 135°27'0 0.0
2016-Jun-21 00:29N 34°33' E 135°27'0 0.0
2016-Jun-20 23:33N 34°33' E 135°27'3 0.1
2016-Jun-20 02:33N 34°35' E 135°24'5 4.3
2016-Jun-20 01:28N 34°38' E 135°29'  
Track history (hours):
 
Tides and Currents Weather Stations Pressure Air Temp Water Temp Dewpoint Dewpoint Depression Visibility Wind Speed Wind Dir Waves Ship Positions

Ryuhomaru

Last reported at 2016-Jun-27 03:26 UTC. Time now 2016-Jun-27 07:52 UTC.
Position N 34°33' E 135°24'.

Length 42 m; draft 3.5 m.

Type: Tug. MMSI: 431000586.

Date/timePositionNaut miles runAvg speedWind from/ knotsBaromVisibWave heightAir tempDewpointWater temp
2016-Jun-27 03:26N 34°33' E 135°24'2 2.0
2016-Jun-27 02:31N 34°31' E 135°24'1 0.9
2016-Jun-27 01:33N 34°31' E 135°24'0 0.0
2016-Jun-27 00:32N 34°31' E 135°24'0 0.0
2016-Jun-26 23:33N 34°31' E 135°24'1 0.6
2016-Jun-26 22:28N 34°31' E 135°23'2 2.4
2016-Jun-26 21:33N 34°32' E 135°21'5 3.6
2016-Jun-26 20:09N 34°33' E 135°27'2 0.1
2016-Jun-26 03:33N 34°33' E 135°25'0 0.4
2016-Jun-26 02:33N 34°33' E 135°24'3 3.2
2016-Jun-26 01:33N 34°33' E 135°20'5 5.1
2016-Jun-26 00:33N 34°33' E 135°27'0 0.0
2016-Jun-25 23:27N 34°33' E 135°27'0 0.0
2016-Jun-24 03:21N 34°33' E 135°27'3 3.2
2016-Jun-24 02:34N 34°33' E 135°24'1 0.4
2016-Jun-24 00:29N 34°34' E 135°24'0 0.1
2016-Jun-23 23:32N 34°34' E 135°24'0 0.0
2016-Jun-23 22:21N 34°34' E 135°24'0 0.1
2016-Jun-23 21:32N 34°34' E 135°24'0 0.1
2016-Jun-23 20:33N 34°34' E 135°24'0 0.0
2016-Jun-23 19:33N 34°34' E 135°24'0 0.0
2016-Jun-23 18:34N 34°34' E 135°24'0 0.1
2016-Jun-23 17:33N 34°34' E 135°24'0 0.1
2016-Jun-23 16:33N 34°34' E 135°24'0 0.1
2016-Jun-23 15:34N 34°34' E 135°24'0 0.0
2016-Jun-23 14:34N 34°34' E 135°24'0 0.1
2016-Jun-23 13:34N 34°34' E 135°24'0 0.0
2016-Jun-23 12:31N 34°34' E 135°24'0 0.1
2016-Jun-23 11:33N 34°34' E 135°24'0 0.0
2016-Jun-23 10:32N 34°34' E 135°24'0 0.1
2016-Jun-23 09:33N 34°34' E 135°24'0 0.1
2016-Jun-23 08:33N 34°34' E 135°24'0 0.1
2016-Jun-23 07:34N 34°34' E 135°24'0 0.1
2016-Jun-23 05:30N 34°34' E 135°24'0 0.1
2016-Jun-23 04:34N 34°34' E 135°24'0 0.0
2016-Jun-23 03:23N 34°34' E 135°24'0 0.0
2016-Jun-23 01:30N 34°34' E 135°24'4 3.6
2016-Jun-23 00:32N 34°33' E 135°20'4 4.0
2016-Jun-22 23:32N 34°33' E 135°25'1 0.9
2016-Jun-22 22:04N 34°33' E 135°27'2 0.2
2016-Jun-22 10:33N 34°33' E 135°24'1 1.2
2016-Jun-22 09:23N 34°32' E 135°23'0 0.5
2016-Jun-22 08:33N 34°33' E 135°23'3 3.0
2016-Jun-22 07:33N 34°33' E 135°27'0 0.0
2016-Jun-22 06:33N 34°33' E 135°27'0 0.0
2016-Jun-22 04:31N 34°33' E 135°27'3 3.0
2016-Jun-22 03:33N 34°33' E 135°23'3 2.9
2016-Jun-22 02:33N 34°33' E 135°27'0 0.0
2016-Jun-22 00:23N 34°33' E 135°27'0 0.0
2016-Jun-21 23:31N 34°33' E 135°27'2 2.5
2016-Jun-21 22:31N 34°32' E 135°24'1 1.3
2016-Jun-21 21:33N 34°33' E 135°23'3 2.2
2016-Jun-21 20:19N 34°33' E 135°27'0 0.0
2016-Jun-21 03:30N 34°33' E 135°27'1 1.4
2016-Jun-21 02:31N 34°32' E 135°25'1 1.3
2016-Jun-21 01:31N 34°33' E 135°27'0 0.0
2016-Jun-21 00:29N 34°33' E 135°27'0 0.0
2016-Jun-20 23:33N 34°33' E 135°27'3 0.1
2016-Jun-20 02:33N 34°35' E 135°24'5 4.3
2016-Jun-20 01:28N 34°38' E 135°29'  

Dump ship's entire track history